< < Back
Terminal Aerodrome Forecast


Current Version              Previous Versions:   1  2  3  4  5  6  7  8  9  

Terminal Aerodrome Forecast

621
FTUS44 KMRX 281121
TAFCHA
TAF
KCHA 281121Z 2812/2912 00000KT P6SM SCT250
     FM281500 VRB03KT P6SM FEW050
     FM290000 00000KT P6SM SKC=

Latest METAR

258
SAUS80 KWBC 281300 RRA
MTRCHA
METAR KCHA 281253Z 00000KT 10SM FEW250 22/18 A3009 RMK AO2 SLP179
T02220178


USA.gov is the U.S. government's official web portal to all federal, state and local government web resources and services.